Time;durP1;ratioP1;P1;durP2;ratioP2;P2;SDS_P1;SDS_P2;PMS_P1;PMS_P2;Temp;Humidity;BMP_temperature;BMP_pressure;BME280_temperature;BME280_humidity;BME280_pressure;Samples;Min_cycle;Max_cycle;Signal;HPM_P1;HPM_P2
2022/10/14 00:01:02;;;;;;;11.10;7.13;;;12.30;99.90;;;;;;5025788;28;20434;-64
2022/10/14 00:03:28;;;;;;;13.33;7.80;;;12.30;99.90;;;;;;5025529;28;20426;-64
2022/10/14 00:05:53;;;;;;;11.30;7.33;;;12.20;99.90;;;;;;5026157;28;20431;-64
2022/10/14 00:08:19;;;;;;;15.20;7.07;;;12.20;99.90;;;;;;5012024;28;20188;-64
2022/10/14 00:10:44;;;;;;;15.40;7.40;;;12.20;99.90;;;;;;5022203;28;20168;-64
2022/10/14 00:13:10;;;;;;;13.97;7.10;;;12.20;99.90;;;;;;5030552;28;20251;-63
2022/10/14 00:15:40;;;;;;;17.00;7.33;;;12.20;99.90;;;;;;5025418;28;20180;-63
2022/10/14 00:18:07;;;;;;;19.33;7.30;;;12.20;99.90;;;;;;5028827;28;20677;-64
2022/10/14 00:20:33;;;;;;;10.73;7.23;;;12.20;99.90;;;;;;5022072;28;20439;-64
2022/10/14 00:22:59;;;;;;;15.23;9.23;;;12.20;99.90;;;;;;5030940;28;20406;-64
2022/10/14 00:25:25;;;;;;;12.53;6.80;;;12.20;99.90;;;;;;5029080;28;20458;-64
2022/10/14 00:27:51;;;;;;;9.60;7.00;;;12.10;99.90;;;;;;5027370;28;21012;-64
2022/10/14 00:30:17;;;;;;;11.10;7.60;;;12.10;99.90;;;;;;5027578;28;20477;-65
2022/10/14 00:32:42;;;;;;;13.30;8.37;;;12.10;99.90;;;;;;5017268;28;20430;-64
2022/10/14 00:35:08;;;;;;;18.93;7.37;;;12.10;99.90;;;;;;5026724;28;20450;-64
2022/10/14 00:37:34;;;;;;;11.63;8.13;;;12.10;99.90;;;;;;5027242;28;20207;-64
2022/10/14 00:39:59;;;;;;;11.63;7.77;;;12.10;99.90;;;;;;5030425;28;20251;-65
2022/10/14 00:42:25;;;;;;;26.87;8.73;;;12.10;99.90;;;;;;5026924;28;20539;-64
2022/10/14 00:44:57;;;;;;;13.80;7.10;;;12.10;99.90;;;;;;5025260;28;20234;-64
2022/10/14 00:47:23;;;;;;;16.73;7.40;;;12.10;99.90;;;;;;5029883;28;20218;-65
2022/10/14 00:49:48;;;;;;;11.30;7.77;;;12.10;99.90;;;;;;5026939;28;20489;-66
2022/10/14 00:52:17;;;;;;;15.27;7.53;;;12.10;99.90;;;;;;5028178;28;20249;-65
2022/10/14 00:54:59;;;;;;;11.30;7.40;;;12.10;99.90;;;;;;5030834;28;20271;-65
2022/10/14 00:57:25;;;;;;;12.73;7.80;;;12.10;99.90;;;;;;5011874;28;20443;-63
2022/10/14 00:59:53;;;;;;;11.80;7.13;;;12.00;99.90;;;;;;5030017;28;21046;-65
2022/10/14 01:02:18;;;;;;;16.87;8.37;;;12.00;99.90;;;;;;5003992;28;20211;-64
2022/10/14 01:04:45;;;;;;;16.00;7.90;;;12.00;99.90;;;;;;5029743;28;20497;-65
2022/10/14 01:07:19;;;;;;;14.30;7.13;;;12.00;99.90;;;;;;5030938;28;20167;-65
2022/10/14 01:10:01;;;;;;;13.90;8.00;;;12.00;99.90;;;;;;5030245;28;20492;-66
2022/10/14 01:12:50;;;;;;;17.13;7.67;;;12.00;99.90;;;;;;5020191;28;20427;-65
2022/10/14 01:15:37;;;;;;;16.60;7.50;;;12.00;99.90;;;;;;5029524;28;20422;-65
2022/10/14 01:18:50;;;;;;;8.60;6.50;;;12.00;99.90;;;;;;5025074;28;20458;-65
2022/10/14 01:21:19;;;;;;;14.10;6.97;;;12.00;99.90;;;;;;4987724;28;20500;-65
2022/10/14 01:24:16;;;;;;;11.40;7.10;;;12.00;99.90;;;;;;5026633;28;20450;-65
2022/10/14 01:26:53;;;;;;;11.67;7.80;;;11.90;99.90;;;;;;5028179;28;20565;-64
2022/10/14 01:29:57;;;;;;;10.33;6.97;;;11.90;99.90;;;;;;5020188;28;20470;-65
2022/10/14 01:32:42;;;;;;;16.03;7.77;;;12.00;99.90;;;;;;5025373;28;20541;-66
2022/10/14 01:35:31;;;;;;;15.57;8.40;;;11.90;99.90;;;;;;5011508;28;20565;-64
2022/10/14 01:38:02;;;;;;;13.30;7.20;;;11.90;99.90;;;;;;5010777;28;20570;-65
2022/10/14 01:40:45;;;;;;;13.60;8.00;;;11.90;99.90;;;;;;5009199;28;20473;-64
2022/10/14 01:43:12;;;;;;;14.63;7.90;;;11.90;99.90;;;;;;5024448;28;20441;-65
2022/10/14 01:45:41;;;;;;;11.07;7.20;;;11.90;99.90;;;;;;5023829;28;20530;-66
2022/10/14 01:48:09;;;;;;;15.03;7.83;;;11.90;99.90;;;;;;5013134;28;20963;-65
2022/10/14 01:50:36;;;;;;;12.70;7.93;;;11.90;99.90;;;;;;5026180;28;20419;-64
2022/10/14 01:53:06;;;;;;;12.80;7.50;;;11.90;99.90;;;;;;5027212;28;20427;-66
2022/10/14 01:55:37;;;;;;;17.00;7.63;;;11.90;99.90;;;;;;5011103;28;20432;-66
2022/10/14 01:58:04;;;;;;;13.87;7.73;;;11.90;99.90;;;;;;5013428;28;20470;-64
2022/10/14 02:00:30;;;;;;;17.40;7.90;;;11.90;99.90;;;;;;5025586;28;20528;-64
2022/10/14 02:02:55;;;;;;;11.23;7.23;;;11.90;99.90;;;;;;5029701;28;20467;-65
2022/10/14 02:05:24;;;;;;;15.40;7.97;;;11.90;99.90;;;;;;5030102;28;20199;-65
2022/10/14 02:08:09;;;;;;;15.97;8.20;;;11.90;99.90;;;;;;5018259;28;20187;-66
2022/10/14 02:10:56;;;;;;;18.10;8.33;;;11.90;99.90;;;;;;5032448;28;20471;-64
2022/10/14 02:13:39;;;;;;;16.10;8.53;;;11.90;99.90;;;;;;5025530;28;20781;-65
2022/10/14 02:16:32;;;;;;;14.63;8.20;;;11.90;99.90;;;;;;5024472;28;20509;-66
2022/10/14 02:19:07;;;;;;;11.50;6.90;;;11.90;99.90;;;;;;5023439;28;20462;-64
2022/10/14 02:21:42;;;;;;;12.13;6.00;;;11.90;99.90;;;;;;5027354;28;20958;-65
2022/10/14 02:24:26;;;;;;;10.77;7.07;;;11.90;99.90;;;;;;5026219;28;20498;-64
2022/10/14 02:26:56;;;;;;;9.60;5.77;;;11.90;99.90;;;;;;5014580;28;20442;-65
2022/10/14 02:29:23;;;;;;;10.37;6.47;;;11.90;99.90;;;;;;5028069;28;20426;-65
2022/10/14 02:31:50;;;;;;;8.37;6.30;;;11.80;99.90;;;;;;5029854;28;20500;-67
2022/10/14 02:34:19;;;;;;;9.37;5.70;;;11.80;99.90;;;;;;5027404;28;20945;-64
2022/10/14 02:36:46;;;;;;;8.70;5.10;;;11.80;99.90;;;;;;5023704;28;20430;-65
2022/10/14 02:39:15;;;;;;;6.77;4.67;;;11.80;99.90;;;;;;5032123;28;20483;-66
2022/10/14 02:41:41;;;;;;;9.50;5.90;;;11.80;99.90;;;;;;5029533;28;20434;-65
2022/10/14 02:44:07;;;;;;;11.03;6.00;;;11.80;99.90;;;;;;5026367;28;20465;-65
2022/10/14 02:46:34;;;;;;;10.27;5.13;;;11.80;99.90;;;;;;5029041;28;20259;-64
2022/10/14 02:49:00;;;;;;;8.70;5.50;;;11.80;99.90;;;;;;5029973;28;20446;-64
2022/10/14 02:51:25;;;;;;;9.73;5.80;;;11.80;99.90;;;;;;5023882;28;20493;-65
2022/10/14 02:53:51;;;;;;;8.13;6.30;;;11.80;99.90;;;;;;5020515;28;20422;-64
2022/10/14 02:56:17;;;;;;;8.70;6.17;;;11.80;99.90;;;;;;5028153;28;20191;-65
2022/10/14 02:58:43;;;;;;;11.20;6.80;;;11.80;99.90;;;;;;5011969;28;20203;-64
2022/10/14 03:01:08;;;;;;;13.70;6.50;;;11.80;99.90;;;;;;5026558;28;20441;-65
2022/10/14 03:03:34;;;;;;;9.03;6.40;;;11.80;99.90;;;;;;5024300;28;20184;-65
2022/10/14 03:05:59;;;;;;;15.90;6.77;;;11.80;99.90;;;;;;5027953;28;20713;-65
2022/10/14 03:08:25;;;;;;;9.30;6.20;;;11.80;99.90;;;;;;5028388;28;20200;-65
2022/10/14 03:10:51;;;;;;;11.10;7.17;;;11.80;99.90;;;;;;5024236;28;20186;-65
2022/10/14 03:13:16;;;;;;;20.87;7.70;;;11.70;99.90;;;;;;5028722;28;20179;-65
2022/10/14 03:15:42;;;;;;;14.00;8.07;;;11.70;99.90;;;;;;5025249;28;20279;-65
2022/10/14 03:18:07;;;;;;;13.57;8.13;;;11.70;99.90;;;;;;5030425;28;20203;-65
2022/10/14 03:20:33;;;;;;;13.80;8.57;;;11.70;99.90;;;;;;5030822;28;20180;-65
2022/10/14 03:22:59;;;;;;;12.33;8.20;;;11.70;99.90;;;;;;5026145;28;20534;-65
2022/10/14 03:25:24;;;;;;;11.90;7.97;;;11.70;99.90;;;;;;5029704;28;20215;-65
2022/10/14 03:27:50;;;;;;;12.80;8.20;;;11.70;99.90;;;;;;5028109;28;20191;-65
2022/10/14 03:30:16;;;;;;;14.80;8.33;;;11.70;99.90;;;;;;5026555;28;20269;-65
2022/10/14 03:32:41;;;;;;;11.77;7.43;;;11.70;99.90;;;;;;5025287;28;20573;-65
2022/10/14 03:35:07;;;;;;;16.33;7.80;;;11.80;99.90;;;;;;5027395;28;20187;-65
2022/10/14 03:37:33;;;;;;;16.03;8.27;;;11.80;99.90;;;;;;5031647;28;20183;-65
2022/10/14 03:39:58;;;;;;;12.13;8.03;;;11.80;99.90;;;;;;5026825;28;20182;-65
2022/10/14 03:42:24;;;;;;;20.90;9.07;;;11.80;99.90;;;;;;5025554;28;20693;-65
2022/10/14 03:44:50;;;;;;;16.97;10.93;;;11.70;99.90;;;;;;5027530;28;20199;-65
2022/10/14 03:47:15;;;;;;;12.50;9.13;;;11.70;99.90;;;;;;5028020;28;20169;-66
2022/10/14 03:49:41;;;;;;;17.10;10.07;;;11.70;99.90;;;;;;5020673;28;20200;-65
2022/10/14 03:52:07;;;;;;;15.80;9.33;;;11.70;99.90;;;;;;5026347;28;20257;-66
2022/10/14 03:54:32;;;;;;;15.10;10.40;;;11.70;99.90;;;;;;5026531;28;20270;-66
2022/10/14 03:56:58;;;;;;;22.10;11.77;;;11.70;99.90;;;;;;5004008;28;20254;-65
2022/10/14 03:59:23;;;;;;;13.87;9.43;;;11.70;99.90;;;;;;5022099;28;20203;-66
2022/10/14 04:01:49;;;;;;;16.00;9.50;;;11.70;99.90;;;;;;5021018;28;20183;-66
2022/10/14 04:04:15;;;;;;;23.70;10.10;;;11.70;99.90;;;;;;5029826;28;20200;-66
2022/10/14 04:06:40;;;;;;;12.87;8.97;;;11.70;99.90;;;;;;5031136;28;20176;-67
2022/10/14 04:09:06;;;;;;;14.80;9.43;;;11.70;99.90;;;;;;5016660;28;20204;-66
2022/10/14 04:11:32;;;;;;;19.60;9.67;;;11.70;99.90;;;;;;5025495;28;20246;-66
2022/10/14 04:13:59;;;;;;;14.90;9.37;;;11.70;99.90;;;;;;5023679;28;20184;-65
2022/10/14 04:16:25;;;;;;;14.97;9.33;;;11.70;99.90;;;;;;5019637;28;20715;-66
2022/10/14 04:18:51;;;;;;;13.23;8.57;;;11.80;99.90;;;;;;5019074;28;20482;-64
2022/10/14 04:21:17;;;;;;;18.33;8.37;;;11.80;99.90;;;;;;5022342;28;21003;-67
2022/10/14 04:23:43;;;;;;;15.27;10.00;;;11.80;99.90;;;;;;5012927;28;20463;-67
2022/10/14 04:26:09;;;;;;;19.30;11.40;;;11.80;99.90;;;;;;5023823;28;20182;-68
2022/10/14 04:28:35;;;;;;;18.67;9.53;;;11.70;99.90;;;;;;5023866;28;20227;-68
2022/10/14 04:31:02;;;;;;;17.00;9.20;;;11.80;99.90;;;;;;5021998;28;20450;-67
2022/10/14 04:33:27;;;;;;;13.30;9.03;;;11.80;99.90;;;;;;5025647;28;20422;-67
2022/10/14 04:36:05;;;;;;;15.03;10.10;;;11.80;99.90;;;;;;5005855;28;21049;-67
2022/10/14 04:38:31;;;;;;;16.30;9.37;;;11.80;99.90;;;;;;5027603;28;20198;-67
2022/10/14 04:40:57;;;;;;;13.50;8.60;;;11.80;99.90;;;;;;5026708;28;20426;-67
2022/10/14 04:43:22;;;;;;;12.97;8.47;;;11.80;99.90;;;;;;5007164;28;20430;-69
2022/10/14 04:45:48;;;;;;;17.40;8.90;;;11.80;99.90;;;;;;5021037;28;20430;-68
2022/10/14 04:48:15;;;;;;;17.87;8.70;;;11.80;99.90;;;;;;5023351;28;20191;-67
2022/10/14 04:50:41;;;;;;;16.67;9.87;;;11.80;99.90;;;;;;5022770;28;20179;-66
2022/10/14 04:53:07;;;;;;;13.10;8.43;;;11.80;99.90;;;;;;5019948;28;20948;-68
2022/10/14 04:55:33;;;;;;;14.63;9.60;;;11.80;99.90;;;;;;5017128;28;20186;-67
2022/10/14 04:57:58;;;;;;;15.83;9.37;;;11.80;99.90;;;;;;5029656;28;20434;-67
2022/10/14 05:00:24;;;;;;;14.33;8.70;;;11.80;99.90;;;;;;5028056;28;20800;-67
2022/10/14 05:02:49;;;;;;;18.83;10.00;;;11.80;99.90;;;;;;5025832;28;20654;-67
2022/10/14 05:05:15;;;;;;;13.23;8.97;;;11.80;99.90;;;;;;5026748;28;20237;-67
2022/10/14 05:07:41;;;;;;;15.53;9.40;;;11.80;99.90;;;;;;5027006;28;20187;-69
2022/10/14 05:10:10;;;;;;;16.80;9.40;;;11.80;99.90;;;;;;5029533;28;20423;-68
2022/10/14 05:12:38;;;;;;;17.20;10.10;;;11.80;99.90;;;;;;5025698;28;20176;-66
2022/10/14 05:15:05;;;;;;;14.20;9.27;;;11.90;99.90;;;;;;5022187;28;20493;-67
2022/10/14 05:17:31;;;;;;;19.40;9.33;;;11.90;99.90;;;;;;5013929;28;20429;-67
2022/10/14 05:19:57;;;;;;;17.43;9.30;;;11.90;99.90;;;;;;5026217;28;20992;-68
2022/10/14 05:22:23;;;;;;;16.10;8.90;;;11.90;99.90;;;;;;5027764;28;20430;-67
2022/10/14 05:24:50;;;;;;;19.43;10.63;;;11.90;99.90;;;;;;5024998;28;20228;-68
2022/10/14 05:27:16;;;;;;;15.10;9.10;;;11.90;99.90;;;;;;5008216;28;20438;-68
2022/10/14 05:29:41;;;;;;;15.30;10.10;;;11.90;99.90;;;;;;5029760;28;20426;-67
2022/10/14 05:32:07;;;;;;;16.97;9.13;;;11.90;99.90;;;;;;5035661;28;20226;-69
2022/10/14 05:34:33;;;;;;;18.67;9.80;;;11.90;99.90;;;;;;5023817;28;20662;-68
2022/10/14 05:36:59;;;;;;;17.93;10.13;;;11.90;99.90;;;;;;5021749;28;20669;-67
2022/10/14 05:39:25;;;;;;;19.60;11.07;;;11.90;99.90;;;;;;5028277;28;20458;-68
2022/10/14 05:41:50;;;;;;;17.33;11.03;;;11.90;99.90;;;;;;5026980;28;20184;-68
2022/10/14 05:44:16;;;;;;;18.77;11.03;;;11.90;99.90;;;;;;5007523;28;20204;-67
2022/10/14 05:46:42;;;;;;;17.60;10.77;;;11.90;99.90;;;;;;5027276;28;20667;-68
2022/10/14 05:49:09;;;;;;;22.60;10.40;;;11.90;99.90;;;;;;5027031;28;20218;-68
2022/10/14 05:51:34;;;;;;;18.70;10.80;;;11.90;99.90;;;;;;5027479;28;20183;-67
2022/10/14 05:54:00;;;;;;;20.23;11.07;;;11.90;99.90;;;;;;5024589;28;20845;-67
2022/10/14 05:56:25;;;;;;;17.67;11.07;;;11.90;99.90;;;;;;5009576;28;20654;-69
2022/10/14 05:58:51;;;;;;;19.03;10.77;;;11.90;99.90;;;;;;5026678;28;20334;-68
2022/10/14 06:01:16;;;;;;;20.97;11.10;;;11.90;99.90;;;;;;5026141;28;20528;-67
2022/10/14 06:03:42;;;;;;;20.53;11.27;;;11.90;99.90;;;;;;5008203;28;20195;-67
2022/10/14 06:06:15;;;;;;;20.00;11.00;;;11.90;99.90;;;;;;5030641;28;20190;-67
2022/10/14 06:08:41;;;;;;;18.53;10.50;;;11.90;99.90;;;;;;5031382;28;20283;-68
2022/10/14 06:11:07;;;;;;;15.90;11.00;;;11.90;99.90;;;;;;5023648;28;20572;-67
2022/10/14 06:13:33;;;;;;;19.13;11.63;;;12.00;99.90;;;;;;5026749;28;20199;-67
2022/10/14 06:16:09;;;;;;;17.63;11.27;;;12.00;99.90;;;;;;5040039;28;20958;-67
2022/10/14 06:18:36;;;;;;;19.47;11.37;;;12.00;99.90;;;;;;5024124;28;20466;-67
2022/10/14 06:21:02;;;;;;;21.73;11.40;;;12.00;99.90;;;;;;5008608;28;20434;-68
2022/10/14 06:23:28;;;;;;;16.67;10.47;;;12.00;99.90;;;;;;5024216;28;20446;-67
2022/10/14 06:25:54;;;;;;;25.40;10.73;;;12.00;99.90;;;;;;5032114;28;20425;-68
2022/10/14 06:28:20;;;;;;;18.03;11.33;;;12.00;99.90;;;;;;5030150;28;20200;-67
2022/10/14 06:30:53;;;;;;;24.23;10.93;;;12.00;99.90;;;;;;5025023;28;20187;-67
2022/10/14 06:33:19;;;;;;;17.87;10.60;;;12.10;99.90;;;;;;5025400;28;20207;-67
2022/10/14 06:35:45;;;;;;;21.90;10.17;;;12.00;99.90;;;;;;5032475;28;20438;-67
2022/10/14 06:38:11;;;;;;;21.23;10.90;;;12.00;99.90;;;;;;5031602;28;20968;-68
2022/10/14 06:40:37;;;;;;;19.60;10.50;;;12.00;99.90;;;;;;5013332;28;20442;-68
2022/10/14 06:43:03;;;;;;;21.33;11.93;;;12.10;99.90;;;;;;5030697;28;20180;-67
2022/10/14 06:45:28;;;;;;;23.20;11.80;;;12.10;99.90;;;;;;5030690;28;20207;-68
2022/10/14 06:47:55;;;;;;;17.90;11.33;;;12.10;99.90;;;;;;5031055;28;20450;-67
2022/10/14 06:50:20;;;;;;;24.83;12.00;;;12.00;99.90;;;;;;5031347;28;20175;-67
2022/10/14 06:52:46;;;;;;;20.50;12.00;;;12.00;99.90;;;;;;5019418;28;20952;-68
2022/10/14 06:55:12;;;;;;;22.90;13.23;;;12.00;99.90;;;;;;5008706;28;20180;-67
2022/10/14 06:57:38;;;;;;;22.00;11.70;;;12.10;99.90;;;;;;5026012;28;20426;-62
2022/10/14 07:00:05;;;;;;;25.80;11.13;;;12.10;99.90;;;;;;5028798;28;20484;-67
2022/10/14 07:02:31;;;;;;;20.63;12.30;;;12.10;99.90;;;;;;5029625;28;20176;-67
2022/10/14 07:04:57;;;;;;;21.67;11.73;;;12.20;99.90;;;;;;5024635;28;20458;-66
2022/10/14 07:07:23;;;;;;;21.53;11.43;;;12.20;99.90;;;;;;5011498;28;20488;-67
2022/10/14 07:09:49;;;;;;;24.57;12.77;;;12.30;99.90;;;;;;5026057;28;20755;-67
2022/10/14 07:12:14;;;;;;;20.30;11.47;;;12.30;99.90;;;;;;5029650;28;20434;-68
2022/10/14 07:14:40;;;;;;;22.63;13.10;;;12.30;99.90;;;;;;5033451;28;20223;-68
2022/10/14 07:17:07;;;;;;;23.63;14.60;;;12.40;99.90;;;;;;5028295;28;20191;-68
2022/10/14 07:19:33;;;;;;;23.43;14.93;;;12.50;99.90;;;;;;5014627;28;20644;-67
2022/10/14 07:21:58;;;;;;;25.80;13.53;;;12.50;99.90;;;;;;5030639;28;20438;-67
2022/10/14 07:24:24;;;;;;;32.47;13.50;;;12.50;99.90;;;;;;5021015;28;20220;-67
2022/10/14 07:26:50;;;;;;;21.37;12.90;;;12.60;99.90;;;;;;5019554;28;20551;-67
2022/10/14 07:29:16;;;;;;;23.93;13.10;;;12.60;99.90;;;;;;5030010;28;20199;-67
2022/10/14 07:31:41;;;;;;;23.33;13.53;;;12.60;99.90;;;;;;5031723;28;20310;-66
2022/10/14 07:34:07;;;;;;;19.37;11.67;;;12.60;99.90;;;;;;5028469;28;20218;-67
2022/10/14 07:36:33;;;;;;;20.30;12.13;;;12.70;99.90;;;;;;5029763;28;20602;-67
2022/10/14 07:38:59;;;;;;;17.53;10.77;;;12.70;99.90;;;;;;5015721;28;20200;-68
2022/10/14 07:41:26;;;;;;;24.30;12.03;;;12.70;99.90;;;;;;5030207;28;20186;-67
2022/10/14 07:43:56;;;;;;;22.30;12.43;;;12.70;99.90;;;;;;5030645;28;20465;-67
2022/10/14 07:46:42;;;;;;;18.30;11.87;;;12.70;99.90;;;;;;5020522;28;20473;-72
2022/10/14 07:49:11;;;;;;;22.33;12.70;;;12.70;99.90;;;;;;5024462;28;20972;-69
2022/10/14 07:51:37;;;;;;;25.20;13.87;;;12.80;99.90;;;;;;5015394;28;20799;-62
2022/10/14 07:54:04;;;;;;;16.37;12.50;;;12.80;99.90;;;;;;5023794;28;20442;-63
2022/10/14 07:56:30;;;;;;;21.80;11.50;;;12.80;99.90;;;;;;5027266;28;21767;-62
2022/10/14 07:58:57;;;;;;;16.37;11.10;;;12.80;99.90;;;;;;5001517;28;20465;-62
2022/10/14 08:01:26;;;;;;;17.20;10.60;;;12.90;99.90;;;;;;5000194;28;20193;-62
2022/10/14 08:03:52;;;;;;;15.67;11.00;;;13.00;99.90;;;;;;5003246;28;20494;-65
2022/10/14 08:06:18;;;;;;;12.50;9.43;;;13.00;99.90;;;;;;5021307;28;20883;-68
2022/10/14 08:08:43;;;;;;;15.60;9.50;;;13.00;99.90;;;;;;5028664;28;20445;-67
2022/10/14 08:11:14;;;;;;;14.70;9.80;;;13.00;99.90;;;;;;5031152;28;20211;-68
2022/10/14 08:13:40;;;;;;;16.90;9.20;;;13.10;99.90;;;;;;5031130;28;20168;-67
2022/10/14 08:16:23;;;;;;;17.53;9.87;;;13.10;99.90;;;;;;5027091;28;20430;-68
2022/10/14 08:18:50;;;;;;;16.70;9.37;;;13.20;99.90;;;;;;5012665;28;20478;-67
2022/10/14 08:21:17;;;;;;;16.33;9.47;;;13.20;99.90;;;;;;5036022;28;20433;-67
2022/10/14 08:23:42;;;;;;;24.50;9.00;;;13.30;99.90;;;;;;5011965;28;20439;-68
2022/10/14 08:26:17;;;;;;;19.60;9.67;;;13.30;99.90;;;;;;5030195;28;20435;-68
2022/10/14 08:28:43;;;;;;;14.50;8.60;;;13.40;99.90;;;;;;5027714;28;20192;-67
2022/10/14 08:31:09;;;;;;;24.87;9.87;;;13.50;99.90;;;;;;5024682;28;20614;-65
2022/10/14 08:33:34;;;;;;;14.87;9.87;;;13.50;99.90;;;;;;5025981;28;20618;-66
2022/10/14 08:36:00;;;;;;;17.87;10.03;;;13.50;99.90;;;;;;5021177;28;20176;-65
2022/10/14 08:38:25;;;;;;;26.07;9.10;;;13.60;99.90;;;;;;5020500;28;20195;-65
2022/10/14 08:40:58;;;;;;;17.30;9.40;;;13.60;99.90;;;;;;5025076;28;20180;-64
2022/10/14 08:43:34;;;;;;;18.67;10.90;;;13.70;99.90;;;;;;5008888;28;20654;-63
2022/10/14 08:46:12;;;;;;;14.87;9.90;;;13.70;99.90;;;;;;5014360;28;20786;-62
2022/10/14 08:48:38;;;;;;;13.47;9.70;;;13.80;99.90;;;;;;5015649;28;20454;-63
2022/10/14 08:51:12;;;;;;;13.30;8.40;;;13.80;99.90;;;;;;5020966;28;21012;-63
2022/10/14 08:53:55;;;;;;;15.40;8.13;;;13.80;99.90;;;;;;5019776;28;20964;-63
2022/10/14 08:56:23;;;;;;;13.83;8.40;;;13.70;99.90;;;;;;5026220;28;20457;-62
2022/10/14 08:58:54;;;;;;;16.60;8.43;;;13.70;99.90;;;;;;5011953;28;21032;-67
2022/10/14 09:01:30;;;;;;;13.20;6.83;;;13.70;99.90;;;;;;5025981;28;20465;-67
2022/10/14 09:04:04;;;;;;;13.60;6.53;;;13.70;99.90;;;;;;5028774;28;20492;-65
2022/10/14 09:06:33;;;;;;;9.30;7.13;;;13.60;99.90;;;;;;5028418;28;20438;-65
2022/10/14 09:09:17;;;;;;;8.77;6.07;;;13.60;99.90;;;;;;5007476;28;20455;-65
2022/10/14 09:11:48;;;;;;;12.00;5.47;;;13.60;99.90;;;;;;5012166;28;20407;-66
2022/10/14 09:14:23;;;;;;;7.60;5.40;;;13.60;99.90;;;;;;5018952;28;20957;-61
2022/10/14 09:16:54;;;;;;;10.03;5.33;;;13.50;99.90;;;;;;5022341;28;20491;-62
2022/10/14 09:20:01;;;;;;;9.13;5.87;;;13.50;99.90;;;;;;5016427;28;20462;-62
2022/10/14 09:22:27;;;;;;;6.97;5.43;;;13.50;99.90;;;;;;4980513;28;20438;-62
2022/10/14 09:24:53;;;;;;;9.80;5.67;;;13.50;99.90;;;;;;5002930;28;20802;-63
2022/10/14 09:27:21;;;;;;;8.23;5.77;;;13.40;99.90;;;;;;5023256;28;20481;-62
2022/10/14 09:29:52;;;;;;;9.07;6.67;;;13.40;99.90;;;;;;5027487;28;20562;-63
2022/10/14 09:32:38;;;;;;;10.50;6.80;;;13.40;99.90;;;;;;5023579;28;20426;-62
2022/10/14 09:35:24;;;;;;;9.60;7.17;;;13.30;99.90;;;;;;5021741;28;20433;-62
2022/10/14 09:37:51;;;;;;;11.00;6.40;;;13.30;99.90;;;;;;5016689;28;20449;-63
2022/10/14 09:40:41;;;;;;;10.50;6.47;;;13.30;99.90;;;;;;5019874;28;20430;-60
2022/10/14 09:43:07;;;;;;;9.00;6.10;;;13.30;99.90;;;;;;5000534;28;20473;-60
2022/10/14 09:45:52;;;;;;;8.50;5.90;;;13.30;99.90;;;;;;5025408;28;20494;-61
2022/10/14 09:48:39;;;;;;;12.33;6.97;;;13.30;99.90;;;;;;5002115;28;20207;-60
2022/10/14 09:51:07;;;;;;;10.40;6.00;;;13.30;99.90;;;;;;5000274;28;20442;-60
2022/10/14 09:54:00;;;;;;;9.20;5.87;;;13.20;99.90;;;;;;5014371;28;20430;-60
2022/10/14 09:56:30;;;;;;;10.83;6.40;;;13.20;99.90;;;;;;5014181;28;20503;-60
2022/10/14 09:58:57;;;;;;;8.90;5.80;;;13.20;99.90;;;;;;5019787;28;20463;-60
2022/10/14 10:01:41;;;;;;;9.90;6.20;;;13.20;99.90;;;;;;5018358;28;20434;-59
2022/10/14 10:04:36;;;;;;;7.43;5.83;;;13.20;99.90;;;;;;5017532;28;20493;-60
2022/10/14 10:07:05;;;;;;;8.80;6.33;;;13.20;99.90;;;;;;5019322;28;20442;-61
2022/10/14 10:09:32;;;;;;;9.13;5.80;;;13.20;99.90;;;;;;5008008;28;20447;-63
2022/10/14 10:11:58;;;;;;;6.23;5.60;;;13.20;99.90;;;;;;5020202;28;20501;-62
2022/10/14 10:14:31;;;;;;;10.67;5.50;;;13.20;99.90;;;;;;5019080;28;20685;-62
2022/10/14 10:17:06;;;;;;;6.43;5.23;;;13.20;99.90;;;;;;5007422;28;20183;-63
2022/10/14 10:19:38;;;;;;;6.93;5.30;;;13.30;99.90;;;;;;5018306;28;20470;-63
2022/10/14 10:22:23;;;;;;;6.83;4.70;;;13.30;99.90;;;;;;5024629;28;20533;-63
2022/10/14 10:25:12;;;;;;;11.47;6.33;;;13.30;99.90;;;;;;5022980;28;20498;-63
2022/10/14 10:27:41;;;;;;;6.60;5.57;;;13.30;99.90;;;;;;5016357;28;20465;-62
2022/10/14 10:30:33;;;;;;;8.10;5.33;;;13.20;99.90;;;;;;5018971;28;20434;-64
2022/10/14 10:33:45;;;;;;;9.33;7.33;;;13.30;99.90;;;;;;5006826;28;20434;-62
2022/10/14 10:36:27;;;;;;;8.83;6.80;;;13.30;99.90;;;;;;4942188;28;20716;-62
2022/10/14 10:39:00;;;;;;;8.53;6.23;;;13.30;99.90;;;;;;4942374;28;20454;-63
2022/10/14 10:41:47;;;;;;;11.93;6.13;;;13.30;99.90;;;;;;4989223;28;20430;-64
2022/10/14 10:44:19;;;;;;;8.93;6.07;;;13.40;99.90;;;;;;5029338;28;21138;-62
2022/10/14 10:47:06;;;;;;;10.47;5.80;;;13.40;99.90;;;;;;5027094;28;20461;-63
2022/10/14 10:49:53;;;;;;;7.73;5.40;;;13.40;99.90;;;;;;5025149;28;20446;-63
2022/10/14 10:52:22;;;;;;;8.67;5.30;;;13.50;99.90;;;;;;5027535;28;20430;-65
2022/10/14 10:55:00;;;;;;;8.33;5.57;;;13.50;99.90;;;;;;5020009;28;20438;-65
2022/10/14 10:58:26;;;;;;;7.80;5.13;;;13.50;99.90;;;;;;5028015;28;20775;-65
2022/10/14 11:01:07;;;;;;;15.13;6.20;;;13.50;99.90;;;;;;4954215;28;20438;-65
2022/10/14 11:03:53;;;;;;;7.50;4.90;;;13.50;99.90;;;;;;4945501;28;20453;-62
2022/10/14 11:12:55;;;;;;;9.93;5.20;;;13.60;99.90;;;;;;5027319;28;20505;-68
2022/10/14 11:15:36;;;;;;;8.53;4.93;;;13.60;99.90;;;;;;4987593;28;20427;-67
2022/10/14 11:18:08;;;;;;;10.43;5.70;;;13.60;99.90;;;;;;5020790;28;20477;-66
2022/10/14 11:21:00;;;;;;;5.83;4.80;;;13.60;99.90;;;;;;5025700;28;20454;-66
2022/10/14 11:23:33;;;;;;;9.30;6.00;;;13.60;99.90;;;;;;5020503;28;20426;-64
2022/10/14 11:26:19;;;;;;;7.83;5.77;;;13.70;99.90;;;;;;5027634;28;20557;-65
2022/10/14 11:29:03;;;;;;;7.97;5.70;;;13.70;99.90;;;;;;5024129;28;20446;-63
2022/10/14 11:31:40;;;;;;;8.30;5.80;;;13.70;99.90;;;;;;5027609;28;20461;-69
2022/10/14 11:34:40;;;;;;;8.47;5.60;;;13.70;99.90;;;;;;5019254;28;20441;-64
2022/10/14 11:37:38;;;;;;;7.50;5.37;;;13.80;99.90;;;;;;5019314;28;21033;-64
2022/10/14 11:40:23;;;;;;;8.10;5.67;;;13.80;99.90;;;;;;5026468;28;20414;-64
2022/10/14 11:42:49;;;;;;;5.83;5.23;;;13.80;99.90;;;;;;5037429;28;20445;-66
2022/10/14 11:45:36;;;;;;;10.20;6.10;;;13.90;99.90;;;;;;5035236;28;20454;-64
2022/10/14 11:48:25;;;;;;;10.63;6.77;;;13.90;99.90;;;;;;5029872;28;20302;-64
2022/10/14 11:51:01;;;;;;;9.40;6.63;;;14.00;99.90;;;;;;5025162;28;20430;-64
2022/10/14 11:53:51;;;;;;;9.60;6.80;;;14.00;99.90;;;;;;5028250;28;20438;-65
2022/10/14 11:56:41;;;;;;;8.43;5.47;;;14.00;99.90;;;;;;5025424;28;20428;-63
2022/10/14 11:59:27;;;;;;;9.07;5.90;;;14.00;99.90;;;;;;5026627;28;20497;-64
2022/10/14 12:01:59;;;;;;;10.80;5.17;;;14.00;99.90;;;;;;5015642;28;20434;-63
2022/10/14 12:04:32;;;;;;;10.30;5.50;;;14.00;99.90;;;;;;5028720;28;20488;-65
2022/10/14 12:07:09;;;;;;;9.23;5.70;;;14.00;99.90;;;;;;5028489;28;21229;-64
2022/10/14 12:09:43;;;;;;;6.77;5.90;;;14.00;99.90;;;;;;5028582;28;21020;-64
2022/10/14 12:12:13;;;;;;;14.17;5.30;;;14.00;99.90;;;;;;5025736;28;20423;-65
2022/10/14 12:14:50;;;;;;;10.40;5.70;;;14.00;99.90;;;;;;5029396;28;20425;-63
2022/10/14 12:17:26;;;;;;;8.20;5.00;;;14.00;99.90;;;;;;5030855;28;20848;-64
2022/10/14 12:19:52;;;;;;;10.27;5.30;;;14.00;99.90;;;;;;5035458;28;20936;-64
2022/10/14 12:22:22;;;;;;;8.57;5.70;;;14.00;99.90;;;;;;5029244;28;20461;-63
2022/10/14 12:24:51;;;;;;;7.97;5.13;;;14.10;99.90;;;;;;5030233;28;20207;-63
2022/10/14 12:27:18;;;;;;;10.60;5.73;;;14.10;99.90;;;;;;5024526;28;21010;-63
2022/10/14 12:29:48;;;;;;;7.80;5.57;;;14.10;99.90;;;;;;5026405;28;20452;-63
2022/10/14 12:32:26;;;;;;;6.50;4.90;;;14.10;99.90;;;;;;5028297;28;20410;-64
2022/10/14 12:34:57;;;;;;;7.63;5.40;;;14.10;99.90;;;;;;5022753;28;20410;-66
2022/10/14 12:37:23;;;;;;;8.43;5.47;;;14.10;99.90;;;;;;5029965;28;20454;-65
2022/10/14 12:39:50;;;;;;;11.20;6.47;;;14.20;99.90;;;;;;5030783;28;20450;-65
2022/10/14 12:42:18;;;;;;;8.90;5.43;;;14.20;99.90;;;;;;5026703;28;20175;-64
2022/10/14 12:44:54;;;;;;;9.43;5.10;;;14.20;99.90;;;;;;5025685;28;20454;-64
2022/10/14 12:47:27;;;;;;;9.90;5.63;;;14.20;99.90;;;;;;5030148;28;20418;-64
2022/10/14 12:49:55;;;;;;;7.97;5.87;;;14.30;99.90;;;;;;5029552;28;20531;-63
2022/10/14 12:52:37;;;;;;;6.33;5.40;;;14.30;99.90;;;;;;5013877;28;20411;-64
2022/10/14 12:55:19;;;;;;;8.90;5.23;;;14.30;99.90;;;;;;5030952;28;20790;-64
2022/10/14 12:57:59;;;;;;;7.87;5.73;;;14.30;99.90;;;;;;5029084;28;20807;-63
2022/10/14 13:00:25;;;;;;;6.33;5.10;;;14.30;99.90;;;;;;5029738;28;20461;-63
2022/10/14 13:02:58;;;;;;;12.03;5.67;;;14.40;99.90;;;;;;5023447;28;20873;-63
2022/10/14 13:05:32;;;;;;;6.87;4.90;;;14.40;99.90;;;;;;5029737;28;20230;-64